logo
Rechercher aéroport 
image banner adimage banner adimage banner ad
image banner ad

KNTD - Point Mugu Nas (Naval Base Ventura Co)

Situé à Oxnard, United States

ICAO - NTD, IATA -

Données fournies par Airmate  

Information générale

Coordonnées: N34°7'9" W119°7'11"
Élévation : 13 feet MSL.
Variation magnétique : 12° East
Voir autres Aéroports à California

Données opérationnelles

Special qualification required
Heure actuelle UTC:
Heure actuelle locale:
Météo
METAR: KNTD 011755Z 14011KT 7SM SCT030 22/16 A2989 RMK AO2 SLP122 T02170156 51007 PNO $
TAF: TAF KNTD 0115/0215 VRB06KT 9000 BR FEW010 BKN020 QNH2980INS FM012200 VRB06KT 9000 HZ SCT020 QNH2981INS BECMG 0203/0205 VRB06KT 9999 BKN010 QNH2981INS T22/0121Z T14/0212Z FS30201
Voir NOTAMs / SUP AIP / TFR affectant cet aéroport [VIEW]
Fréquences de communication: [VIEW]

Pistes:

Identifiant RWYQFULongueur (ft)Largeur (ft)SurfaceLDA (ft)
0344°11102200ASPH
21224°11102200ASPH
09105°5502200ASPH
27285°5502200ASPH

Coordonnées de l'aéroport

Adresse: Oxnard United States

Vue satellite de KNTD